CST,Max TemperatureF,Mean TemperatureF,Min TemperatureF,Max Dew PointF,MeanDew PointF,Min DewpointF,Max Humidity, Mean Humidity, Min Humidity, Max Sea Level PressureIn, Mean Sea Level PressureIn, Min Sea Level PressureIn, Max VisibilityMiles, Mean VisibilityMiles, Min VisibilityMiles, Max Wind SpeedMPH, Mean Wind SpeedMPH, Max Gust SpeedMPH,PrecipitationIn, CloudCover, Events, WindDirDegrees
2012-11-1,80,60,40,46,41,38,83,55,26,30.03,29.97,29.90,10,10,9,12,2,15,0.00,0,,172
2012-11-2,88,67,46,52,47,44,83,53,22,29.91,29.85,29.77,10,10,10,24,8,31,0.00,0,,183
2012-11-3,67,56,45,50,38,35,70,52,34,30.17,30.08,29.87,10,10,10,14,8,18,0.00,0,,355
2012-11-4,69,53,36,41,37,34,92,60,28,30.21,30.14,30.05,10,10,10,8,3,9,0.00,0,,17
2012-11-5,65,53,41,47,40,37,77,61,44,30.13,30.06,30.00,10,10,10,23,10,29,0.00,3,,320
2012-11-6,69,52,34,40,36,32,92,62,31,30.14,30.09,30.02,10,10,7,15,5,20,0.00,0,,291
2012-11-7,66,51,35,34,31,28,70,48,26,30.19,30.12,30.08,10,10,10,13,4,17,0.00,0,,43
2012-11-8,75,60,44,47,40,32,65,49,33,30.08,29.97,29.85,10,9,5,28,15,36,0.00,0,,154
2012-11-9,77,68,59,60,56,46,84,69,54,29.91,29.85,29.78,10,10,10,29,18,35,0.00,2,,170
2012-11-10,76,70,64,58,56,55,78,64,50,29.89,29.80,29.71,10,10,10,36,22,48,0.00,2,,171
2012-11-11,71,51,31,61,47,27,100,81,61,30.30,29.91,29.68,10,7,1,32,13,43,0.81,7,Rain-Thunderstorm,325
2012-11-12,53,40,26,29,25,21,85,59,32,30.50,30.45,30.33,10,10,10,13,4,17,0.00,0,,270
2012-11-13,58,45,32,29,25,20,75,49,23,30.51,30.42,30.33,10,10,10,15,6,18,0.00,0,,158
2012-11-14,59,47,34,31,28,26,82,56,30,30.42,30.34,30.27,10,10,10,14,6,17,0.00,0,,160
2012-11-15,62,48,33,35,31,28,82,56,29,30.37,30.31,30.26,10,10,10,10,5,14,0.00,0,,146
2012-11-16,63,48,32,37,33,29,92,61,30,30.45,30.39,30.35,10,10,10,9,2,13,0.00,0,,155
2012-11-17,62,47,32,35,30,25,89,57,25,30.41,30.34,30.28,10,10,10,16,7,22,0.00,0,,155
2012-11-18,66,54,41,37,34,31,65,48,31,30.30,30.22,30.16,10,10,10,23,11,28,T,2,,157
2012-11-19,72,62,51,50,46,40,72,60,47,30.18,30.13,30.07,10,10,10,15,9,21,0.02,3,Rain,165
2012-11-20,73,58,42,53,44,41,96,64,31,30.22,30.18,30.12,10,9,2,8,3,20,0.00,0,Fog,360
2012-11-21,77,57,37,45,38,32,93,57,21,30.26,30.15,30.03,10,10,8,18,7,22,0.00,0,,166
2012-11-22,76,67,58,59,47,42,60,51,41,30.20,30.01,29.88,10,10,2,30,16,37,0.28,2,Rain,180
2012-11-23,59,47,34,38,26,20,82,57,31,30.50,30.44,30.24,10,10,10,24,10,35,0.00,1,,349
2012-11-24,54,40,26,24,22,19,78,52,26,30.45,30.24,30.01,10,10,10,17,8,23,0.00,0,,170
2012-11-25,65,52,39,36,31,23,70,51,31,29.99,29.90,29.82,10,10,10,14,6,17,0.00,0,,150
2012-11-26,48,41,34,36,31,25,92,69,45,30.40,30.11,29.88,10,10,10,25,13,33,0.00,4,,356
2012-11-27,48,36,24,27,25,23,92,65,38,30.51,30.41,30.32,10,9,6,14,4,18,0.00,0,,17
2012-11-28,59,43,27,35,31,24,92,66,40,30.43,30.32,30.19,10,10,10,16,6,21,0.00,0,,161
2012-11-29,69,58,46,40,35,32,60,44,27,30.19,30.10,30.00,10,10,10,28,14,35,0.00,0,,170
2012-11-30,61,54,47,55,48,35,86,68,50,30.11,30.05,29.99,10,9,6,17,9,21,0.00,5,,166